Time;durP1;ratioP1;P1;durP2;ratioP2;P2;SDS_P1;SDS_P2;PMS_P1;PMS_P2;Temp;Humidity;BMP_temperature;BMP_pressure;BME280_temperature;BME280_humidity;BME280_pressure;Samples;Min_cycle;Max_cycle;Signal;HPM_P1;HPM_P2
2023/12/25 00:05:00;;;;;;;7.40;1.30;;;23.30;55.60;;;;;;219183;1285;22677;-52
2023/12/25 00:10:05;;;;;;;7.90;1.20;;;23.30;54.60;;;;;;218989;1288;23998;-52
2023/12/25 00:15:09;;;;;;;5.90;1.30;;;23.20;55.20;;;;;;219116;1288;23161;-51
2023/12/25 00:20:14;;;;;;;2.80;1.20;;;23.20;55.00;;;;;;218952;1286;24225;-52
2023/12/25 00:25:19;;;;;;;3.90;1.80;;;23.30;54.30;;;;;;218999;1285;24260;-55
2023/12/25 00:30:24;;;;;;;8.30;1.40;;;23.40;54.10;;;;;;218482;1292;24330;-60
2023/12/25 00:35:28;;;;;;;5.30;1.50;;;23.70;53.80;;;;;;218225;1286;22703;-60
2023/12/25 00:40:34;;;;;;;2.70;0.80;;;23.90;53.20;;;;;;218540;1292;22549;-59
2023/12/25 00:45:42;;;;;;;3.20;1.50;;;24.00;53.30;;;;;;218455;1286;24334;-61
2023/12/25 00:50:47;;;;;;;4.50;1.00;;;24.00;53.00;;;;;;218827;1289;23306;-59
2023/12/25 00:55:52;;;;;;;1.90;0.80;;;24.10;52.90;;;;;;219038;1288;22826;-59
2023/12/25 01:00:56;;;;;;;2.40;1.30;;;24.00;53.50;;;;;;219187;1283;25424;-59
2023/12/25 01:06:03;;;;;;;3.10;1.00;;;23.90;52.90;;;;;;218933;1288;22600;-59
2023/12/25 01:11:07;;;;;;;1.60;0.90;;;23.80;53.30;;;;;;219069;1287;22533;-60
2023/12/25 01:16:13;;;;;;;1.80;1.10;;;23.60;53.80;;;;;;219148;1287;25683;-60
2023/12/25 01:21:18;;;;;;;1.50;0.90;;;23.40;54.10;;;;;;219067;1286;22729;-59
2023/12/25 01:26:26;;;;;;;1.60;0.90;;;23.50;53.80;;;;;;219113;1280;22572;-59
2023/12/25 01:31:31;;;;;;;0.80;0.60;;;23.50;53.50;;;;;;218980;1273;25281;-60
2023/12/25 01:36:38;;;;;;;1.60;0.70;;;23.50;54.00;;;;;;219200;1279;22610;-59
2023/12/25 01:41:43;;;;;;;2.00;0.90;;;23.40;54.30;;;;;;219258;1280;25403;-60
2023/12/25 01:46:49;;;;;;;1.80;0.90;;;23.30;54.10;;;;;;219278;1283;22537;-60
2023/12/25 01:51:57;;;;;;;1.90;0.90;;;23.30;54.20;;;;;;219025;1287;24218;-60
2023/12/25 01:57:02;;;;;;;1.80;0.80;;;23.20;54.20;;;;;;219016;1286;24099;-59
2023/12/25 02:02:07;;;;;;;0.90;0.70;;;23.10;54.20;;;;;;219135;1284;22665;-59
2023/12/25 02:07:14;;;;;;;3.10;1.10;;;23.20;54.40;;;;;;219020;1283;25252;-60
2023/12/25 02:12:18;;;;;;;0.90;0.90;;;23.10;54.40;;;;;;219068;1283;23531;-61
2023/12/25 02:17:23;;;;;;;1.90;0.80;;;23.10;54.60;;;;;;219061;1281;22550;-60
2023/12/25 02:22:27;;;;;;;1.20;0.80;;;23.10;54.60;;;;;;218946;1286;24395;-60
2023/12/25 02:27:32;;;;;;;0.80;0.60;;;23.00;54.40;;;;;;220780;1286;22593;-59
2023/12/25 02:32:36;;;;;;;0.70;0.70;;;23.20;55.10;;;;;;219248;1283;24293;-60
2023/12/25 02:37:42;;;;;;;0.70;0.70;;;23.60;53.60;;;;;;219010;1288;23943;-59
2023/12/25 02:42:46;;;;;;;0.60;0.50;;;23.90;53.10;;;;;;219868;1288;23980;-60
2023/12/25 02:47:50;;;;;;;1.60;0.60;;;24.10;52.50;;;;;;219023;1279;22549;-61
2023/12/25 02:52:56;;;;;;;1.40;0.70;;;24.10;52.50;;;;;;219222;1288;24271;-61
2023/12/25 02:58:01;;;;;;;1.70;0.70;;;24.20;52.50;;;;;;219200;1288;22671;-61
2023/12/25 03:03:05;;;;;;;0.60;0.50;;;24.10;52.60;;;;;;219108;1288;23066;-59
2023/12/25 03:08:11;;;;;;;1.20;0.50;;;24.00;53.00;;;;;;219075;1288;22547;-60
2023/12/25 03:13:16;;;;;;;0.70;0.50;;;23.90;53.00;;;;;;219194;1283;22539;-58
2023/12/25 03:18:20;;;;;;;1.00;0.60;;;23.70;52.80;;;;;;219033;1276;24224;-58
2023/12/25 03:23:25;;;;;;;3.20;0.50;;;23.80;53.40;;;;;;219079;1283;22582;-59
2023/12/25 03:28:30;;;;;;;0.70;0.70;;;23.70;53.80;;;;;;219361;1282;22553;-58
2023/12/25 03:33:37;;;;;;;1.00;0.60;;;23.50;54.20;;;;;;219053;1273;24398;-59
2023/12/25 03:38:41;;;;;;;1.50;0.60;;;23.50;54.10;;;;;;219201;1279;22690;-59
2023/12/25 03:43:47;;;;;;;0.60;0.50;;;23.40;54.20;;;;;;219121;1286;22603;-59
2023/12/25 03:48:51;;;;;;;0.80;0.40;;;23.40;54.70;;;;;;219266;1286;25518;-59
2023/12/25 03:53:58;;;;;;;0.60;0.60;;;23.30;54.70;;;;;;219148;1281;22752;-61
2023/12/25 03:59:03;;;;;;;0.70;0.50;;;23.30;54.80;;;;;;219390;1287;24221;-59
2023/12/25 04:04:08;;;;;;;0.60;0.40;;;23.30;54.60;;;;;;218914;1278;24310;-59
2023/12/25 04:09:13;;;;;;;0.60;0.40;;;23.10;54.80;;;;;;218969;1280;22811;-60
2023/12/25 04:14:18;;;;;;;0.50;0.40;;;23.20;55.00;;;;;;219179;1276;24270;-59
2023/12/25 04:19:22;;;;;;;0.50;0.50;;;23.20;54.80;;;;;;219141;1283;24290;-59
2023/12/25 04:24:27;;;;;;;1.60;0.60;;;23.10;54.80;;;;;;219060;1283;24293;-58
2023/12/25 04:29:32;;;;;;;2.40;0.60;;;23.10;55.10;;;;;;218781;1283;22658;-59
2023/12/25 04:34:37;;;;;;;0.70;0.60;;;23.10;55.10;;;;;;219719;1288;22612;-58
2023/12/25 04:39:43;;;;;;;0.70;0.50;;;23.10;55.40;;;;;;218931;1283;25464;-59
2023/12/25 04:44:47;;;;;;;1.80;0.50;;;23.50;54.40;;;;;;220152;1278;22762;-59
2023/12/25 04:49:52;;;;;;;0.60;0.50;;;23.80;53.50;;;;;;218876;1288;22574;-60
2023/12/25 04:54:56;;;;;;;0.40;0.40;;;24.00;52.70;;;;;;219177;1273;22691;-60
2023/12/25 05:00:02;;;;;;;0.70;0.40;;;24.10;53.10;;;;;;218822;1283;22558;-62
2023/12/25 05:05:07;;;;;;;1.90;0.60;;;24.20;53.00;;;;;;219144;1281;22636;-58
2023/12/25 05:10:11;;;;;;;0.70;0.50;;;24.10;52.70;;;;;;219211;1283;23212;-59
2023/12/25 05:15:16;;;;;;;0.50;0.40;;;24.00;53.00;;;;;;219264;1285;22562;-60
2023/12/25 05:20:20;;;;;;;0.60;0.50;;;23.90;53.30;;;;;;219252;1273;24310;-61
2023/12/25 05:25:25;;;;;;;0.40;0.40;;;23.80;53.10;;;;;;219097;1273;24311;-60
2023/12/25 05:30:29;;;;;;;0.60;0.60;;;23.70;53.50;;;;;;219000;1283;24208;-59
2023/12/25 05:35:35;;;;;;;0.70;0.30;;;23.60;54.00;;;;;;218928;1288;22553;-59
2023/12/25 05:40:41;;;;;;;0.50;0.50;;;23.50;53.90;;;;;;219158;1286;22737;-61
2023/12/25 05:45:45;;;;;;;0.40;0.30;;;23.50;54.20;;;;;;218980;1286;22558;-59
2023/12/25 05:50:53;;;;;;;0.20;0.20;;;23.50;54.80;;;;;;218774;1288;22670;-59
2023/12/25 05:55:58;;;;;;;2.20;0.50;;;23.50;54.40;;;;;;218869;1282;25232;-60
2023/12/25 06:01:12;;;;;;;0.60;0.60;;;23.30;54.60;;;;;;219144;1283;22536;-59
2023/12/25 06:06:17;;;;;;;0.30;0.20;;;23.30;54.80;;;;;;219149;1286;24418;-60
2023/12/25 06:11:22;;;;;;;0.40;0.40;;;23.10;54.80;;;;;;218983;1285;22599;-59
2023/12/25 06:16:27;;;;;;;0.70;0.40;;;23.10;55.10;;;;;;218973;1276;24277;-59
2023/12/25 06:21:32;;;;;;;0.40;0.20;;;23.10;54.90;;;;;;219272;1280;24178;-60
2023/12/25 06:26:36;;;;;;;0.70;0.50;;;23.10;55.00;;;;;;218637;1283;288970;-59
2023/12/25 06:31:46;;;;;;;0.40;0.20;;;23.10;55.30;;;;;;219160;1270;24202;-59
2023/12/25 06:36:51;;;;;;;0.40;0.30;;;23.10;55.10;;;;;;219106;1288;23177;-59
2023/12/25 06:41:55;;;;;;;0.30;0.30;;;23.10;55.10;;;;;;219246;1285;22837;-59
2023/12/25 06:47:00;;;;;;;0.30;0.30;;;23.00;54.90;;;;;;219194;1288;22554;-58
2023/12/25 06:52:06;;;;;;;0.60;0.40;;;23.00;55.10;;;;;;219239;1264;26411;-58
2023/12/25 06:57:14;;;;;;;0.50;0.50;;;23.00;54.90;;;;;;224202;1276;24215;-58
2023/12/25 07:02:21;;;;;;;0.50;0.50;;;23.10;54.80;;;;;;219319;1280;24247;-56
2023/12/25 07:07:25;;;;;;;0.50;0.50;;;23.10;54.80;;;;;;221195;1283;22572;-60
2023/12/25 07:12:30;;;;;;;0.20;0.20;;;23.00;54.90;;;;;;219197;1287;22558;-59
2023/12/25 07:17:35;;;;;;;0.30;0.30;;;22.90;55.30;;;;;;218874;1286;25257;-60
2023/12/25 07:22:40;;;;;;;0.40;0.40;;;22.80;56.10;;;;;;219026;1280;22565;-58
2023/12/25 07:27:44;;;;;;;0.40;0.40;;;22.80;55.30;;;;;;219260;1287;22731;-60
2023/12/25 07:32:49;;;;;;;0.20;0.20;;;22.80;55.00;;;;;;219344;1280;25418;-60
2023/12/25 07:37:54;;;;;;;0.20;0.20;;;22.80;55.50;;;;;;219418;1288;24580;-59
2023/12/25 07:42:59;;;;;;;0.70;0.50;;;22.80;55.40;;;;;;219119;1283;22622;-59
2023/12/25 07:48:04;;;;;;;0.80;0.30;;;22.80;55.50;;;;;;219185;1280;24324;-58
2023/12/25 07:53:09;;;;;;;0.40;0.20;;;22.70;55.50;;;;;;219106;1282;23922;-53
2023/12/25 07:58:14;;;;;;;0.60;0.40;;;22.60;56.20;;;;;;219037;1283;22560;-55
2023/12/25 08:03:19;;;;;;;2.40;0.40;;;22.60;56.80;;;;;;219243;1277;22547;-54
2023/12/25 08:08:24;;;;;;;1.50;0.30;;;22.60;56.80;;;;;;219279;1280;24182;-53
2023/12/25 08:13:29;;;;;;;3.40;0.30;;;22.50;57.10;;;;;;219187;1280;25911;-53
2023/12/25 08:18:33;;;;;;;2.80;0.20;;;22.90;56.60;;;;;;219033;1283;24299;-56
2023/12/25 08:23:41;;;;;;;2.70;0.40;;;23.20;56.00;;;;;;219385;1283;24864;-54
2023/12/25 08:28:47;;;;;;;3.30;0.70;;;23.40;56.00;;;;;;219232;1286;22681;-54
2023/12/25 08:33:52;;;;;;;3.70;0.50;;;23.50;55.90;;;;;;218960;1264;22596;-55
2023/12/25 08:38:57;;;;;;;8.50;0.70;;;23.60;55.60;;;;;;219024;1287;24271;-52
2023/12/25 08:44:01;;;;;;;4.80;0.60;;;23.60;55.60;;;;;;219423;1283;24273;-53
2023/12/25 08:49:08;;;;;;;3.80;0.50;;;23.50;56.20;;;;;;219279;1287;23504;-54
2023/12/25 08:54:13;;;;;;;12.80;1.10;;;23.40;56.30;;;;;;219148;1280;25254;-55
2023/12/25 08:59:17;;;;;;;7.30;0.80;;;23.30;56.80;;;;;;219353;1283;22785;-52
2023/12/25 09:04:21;;;;;;;1.50;0.70;;;23.20;57.00;;;;;;218906;1279;24446;-52
2023/12/25 09:09:26;;;;;;;3.80;0.60;;;23.10;56.70;;;;;;225182;1279;24205;-50
2023/12/25 09:14:33;;;;;;;2.50;0.60;;;23.10;56.60;;;;;;219060;1286;22546;-52
2023/12/25 09:19:37;;;;;;;1.30;0.60;;;23.00;56.60;;;;;;219923;1280;25363;-53
2023/12/25 09:24:44;;;;;;;2.00;0.50;;;22.90;56.70;;;;;;219222;1282;23933;-53
2023/12/25 09:29:48;;;;;;;1.30;0.40;;;22.80;56.80;;;;;;219176;1279;22657;-56
2023/12/25 09:34:53;;;;;;;5.90;0.60;;;22.70;56.80;;;;;;218974;1286;25418;-54
2023/12/25 09:40:00;;;;;;;2.20;0.60;;;22.70;56.80;;;;;;218717;1284;24129;-54
2023/12/25 09:45:05;;;;;;;0.70;0.40;;;22.60;56.80;;;;;;218706;1286;24246;-52
2023/12/25 09:50:10;;;;;;;1.80;0.60;;;22.60;56.90;;;;;;218686;1286;25302;-54
2023/12/25 09:55:15;;;;;;;3.00;0.50;;;22.90;56.30;;;;;;218776;1286;25309;-52
2023/12/25 10:00:21;;;;;;;1.80;0.60;;;23.30;55.50;;;;;;218897;1283;22573;-53
2023/12/25 10:05:26;;;;;;;1.10;0.30;;;23.60;55.10;;;;;;219180;1282;22590;-52
2023/12/25 10:10:30;;;;;;;0.40;0.30;;;23.70;54.50;;;;;;219224;1283;22537;-54
2023/12/25 10:15:38;;;;;;;1.40;0.40;;;23.70;54.10;;;;;;219292;1286;22637;-54
2023/12/25 10:20:58;;;;;;;1.00;0.40;;;23.60;54.30;;;;;;219078;1283;22754;-54
2023/12/25 10:26:04;;;;;;;2.10;0.40;;;23.60;54.80;;;;;;218815;1283;24351;-48
2023/12/25 10:31:08;;;;;;;2.80;0.30;;;23.50;54.50;;;;;;219023;1283;25406;-54
2023/12/25 10:36:13;;;;;;;1.40;0.50;;;23.40;54.80;;;;;;219166;1280;22564;-52
2023/12/25 10:41:24;;;;;;;0.80;0.50;;;23.30;55.10;;;;;;219089;1286;22715;-53
2023/12/25 10:46:37;;;;;;;1.10;0.40;;;23.30;54.70;;;;;;219150;1283;22557;-51
2023/12/25 10:51:46;;;;;;;0.70;0.30;;;23.20;55.10;;;;;;218956;1280;22626;-53
2023/12/25 10:56:50;;;;;;;1.10;0.50;;;23.20;54.80;;;;;;219238;1283;22596;-51
2023/12/25 11:01:58;;;;;;;0.40;0.40;;;23.10;54.90;;;;;;219107;1283;25359;-55
2023/12/25 11:07:04;;;;;;;1.30;0.20;;;23.00;54.90;;;;;;218994;1283;23478;-55
2023/12/25 11:12:09;;;;;;;0.30;0.30;;;23.00;54.70;;;;;;219242;1278;25536;-56
2023/12/25 11:17:13;;;;;;;1.70;0.40;;;23.00;54.70;;;;;;219210;1286;25309;-52
2023/12/25 11:22:29;;;;;;;0.50;0.40;;;23.00;55.00;;;;;;219147;1287;22569;-53
2023/12/25 11:27:34;;;;;;;1.90;0.30;;;22.90;55.00;;;;;;219345;1283;25525;-53
2023/12/25 11:32:45;;;;;;;0.80;0.40;;;22.90;55.10;;;;;;219034;1280;25192;-54
2023/12/25 11:37:50;;;;;;;;;;;23.00;55.10;;;;;;219223;1287;22631;-53
2023/12/25 11:42:57;;;;;;;0.20;0.20;;;23.00;55.40;;;;;;218863;1288;22543;-53
2023/12/25 11:48:02;;;;;;;0.70;0.30;;;22.90;55.30;;;;;;219182;1287;25464;-52
2023/12/25 11:53:07;;;;;;;1.00;0.60;;;22.80;55.20;;;;;;219221;1287;25526;-54
2023/12/25 11:58:12;;;;;;;1.80;0.40;;;22.70;55.30;;;;;;219175;1273;24352;-54
2023/12/25 12:03:16;;;;;;;1.00;0.20;;;22.70;55.40;;;;;;219117;1285;22674;-54
2023/12/25 12:08:21;;;;;;;2.10;0.50;;;22.70;55.80;;;;;;219073;1287;24295;-54
2023/12/25 12:13:26;;;;;;;0.30;0.30;;;22.60;55.40;;;;;;219155;1283;24230;-52
2023/12/25 12:18:30;;;;;;;0.40;0.40;;;22.60;55.50;;;;;;219128;1283;24377;-54
2023/12/25 12:23:35;;;;;;;0.50;0.40;;;23.00;54.80;;;;;;218993;1279;24208;-53
2023/12/25 12:28:40;;;;;;;2.40;0.40;;;23.40;54.00;;;;;;219059;1283;24279;-53
2023/12/25 12:33:44;;;;;;;1.10;0.40;;;23.60;53.50;;;;;;218958;1267;24241;-52
2023/12/25 12:38:49;;;;;;;0.50;0.30;;;23.60;53.30;;;;;;219172;1284;22605;-53
2023/12/25 12:44:00;;;;;;;0.70;0.40;;;23.70;53.40;;;;;;219158;1287;24874;-50
2023/12/25 12:49:05;;;;;;;0.30;0.30;;;23.70;53.10;;;;;;219092;1287;22542;-52
2023/12/25 12:54:10;;;;;;;0.40;0.40;;;23.60;53.00;;;;;;219078;1288;26600;-52
2023/12/25 12:59:15;;;;;;;0.40;0.30;;;23.50;53.20;;;;;;219110;1286;24192;-51
2023/12/25 13:04:21;;;;;;;1.30;0.30;;;23.40;53.30;;;;;;219150;1283;22643;-55
2023/12/25 13:09:26;;;;;;;0.40;0.30;;;23.30;53.20;;;;;;218976;1283;24379;-50
2023/12/25 13:14:30;;;;;;;0.40;0.20;;;23.20;53.60;;;;;;218980;1283;22590;-49
2023/12/25 13:19:35;;;;;;;1.40;0.60;;;23.20;54.10;;;;;;218889;1287;22770;-52
2023/12/25 13:24:39;;;;;;;0.50;0.30;;;23.10;53.90;;;;;;218988;1283;25473;-54
2023/12/25 13:29:43;;;;;;;0.70;0.40;;;23.00;54.00;;;;;;218835;1282;22662;-50
2023/12/25 13:34:48;;;;;;;0.50;0.40;;;23.00;54.20;;;;;;218775;1286;22646;-50
2023/12/25 13:39:52;;;;;;;0.40;0.40;;;22.90;54.20;;;;;;218810;1283;22536;-55
2023/12/25 13:44:57;;;;;;;0.40;0.30;;;22.80;54.10;;;;;;219191;1273;25388;-53
2023/12/25 13:50:02;;;;;;;1.00;0.40;;;22.90;54.10;;;;;;219034;1286;25307;-50
2023/12/25 13:55:08;;;;;;;0.50;0.30;;;22.90;54.20;;;;;;218913;1286;24289;-51
2023/12/25 14:00:15;;;;;;;1.20;0.50;;;22.80;54.20;;;;;;219215;1283;22668;-53
2023/12/25 14:05:20;;;;;;;0.50;0.40;;;23.10;53.90;;;;;;218290;1288;25231;-53
2023/12/25 14:10:24;;;;;;;0.20;0.20;;;23.50;53.10;;;;;;218565;1279;22546;-54
2023/12/25 14:15:29;;;;;;;0.40;0.30;;;23.70;52.50;;;;;;218434;1291;23683;-51
2023/12/25 14:20:33;;;;;;;0.40;0.40;;;23.80;52.30;;;;;;218725;1288;22543;-53
2023/12/25 14:25:38;;;;;;;0.40;0.40;;;23.80;52.50;;;;;;219287;1286;24383;-54
2023/12/25 14:30:42;;;;;;;0.50;0.50;;;23.70;52.30;;;;;;219118;1282;24274;-53
2023/12/25 14:35:47;;;;;;;0.40;0.40;;;23.70;52.40;;;;;;219179;1288;25377;-54
2023/12/25 14:40:51;;;;;;;0.30;0.30;;;23.60;52.50;;;;;;219188;1283;25676;-54
2023/12/25 14:45:57;;;;;;;1.00;0.50;;;23.60;52.50;;;;;;219044;1286;22540;-54
2023/12/25 14:51:16;;;;;;;0.60;0.50;;;23.40;53.30;;;;;;219080;1286;22562;-52
2023/12/25 14:56:21;;;;;;;0.30;0.30;;;23.30;52.90;;;;;;219619;1285;25077;-53
2023/12/25 15:01:25;;;;;;;0.40;0.40;;;23.30;53.00;;;;;;219233;1288;25671;-51
2023/12/25 15:06:31;;;;;;;0.40;0.40;;;23.20;53.00;;;;;;219077;1283;22539;-50
2023/12/25 15:11:43;;;;;;;0.50;0.30;;;23.20;53.00;;;;;;219264;1281;22566;-52
2023/12/25 15:16:47;;;;;;;0.90;0.40;;;23.10;53.50;;;;;;219311;1286;22545;-52
2023/12/25 15:21:52;;;;;;;0.60;0.40;;;23.10;53.20;;;;;;219377;1280;22550;-53
2023/12/25 15:26:56;;;;;;;0.40;0.40;;;23.00;53.50;;;;;;219322;1281;22659;-51
2023/12/25 15:32:02;;;;;;;0.40;0.40;;;22.90;53.60;;;;;;219056;1287;22627;-51
2023/12/25 15:37:06;;;;;;;0.50;0.40;;;22.80;53.40;;;;;;219300;1280;24224;-51
2023/12/25 15:42:12;;;;;;;0.40;0.40;;;23.10;53.10;;;;;;219232;1287;22543;-52
2023/12/25 15:47:18;;;;;;;0.30;0.30;;;23.40;52.70;;;;;;218983;1288;22627;-53
2023/12/25 15:52:23;;;;;;;0.50;0.40;;;23.60;52.10;;;;;;219232;1280;22681;-53
2023/12/25 15:57:27;;;;;;;0.50;0.50;;;23.70;51.50;;;;;;219253;1285;22548;-52
2023/12/25 16:02:32;;;;;;;0.20;0.20;;;23.90;51.30;;;;;;219346;1285;22729;-53
2023/12/25 16:07:37;;;;;;;0.70;0.40;;;23.80;51.40;;;;;;219384;1288;24256;-52
2023/12/25 16:12:41;;;;;;;0.60;0.50;;;23.70;51.50;;;;;;219403;1286;22792;-55
2023/12/25 16:17:47;;;;;;;0.50;0.30;;;23.60;51.60;;;;;;219182;1287;23029;-53
2023/12/25 16:22:52;;;;;;;0.30;0.30;;;23.50;51.70;;;;;;219206;1281;22539;-52
2023/12/25 16:28:04;;;;;;;0.60;0.60;;;23.40;51.90;;;;;;219292;1269;24266;-51
2023/12/25 16:33:09;;;;;;;0.40;0.40;;;23.30;52.00;;;;;;219271;1283;24420;-54
2023/12/25 16:38:14;;;;;;;0.40;0.40;;;23.30;52.10;;;;;;219098;1270;23930;-51
2023/12/25 16:43:18;;;;;;;0.50;0.50;;;23.20;52.10;;;;;;219230;1282;24260;-52
2023/12/25 16:48:24;;;;;;;0.50;0.50;;;23.10;52.20;;;;;;219023;1264;22655;-54
2023/12/25 16:53:29;;;;;;;0.50;0.40;;;23.10;52.20;;;;;;222290;1281;22543;-51
2023/12/25 16:58:34;;;;;;;0.40;0.40;;;23.10;52.20;;;;;;219326;1280;25160;-49
2023/12/25 17:03:39;;;;;;;0.60;0.50;;;23.00;52.30;;;;;;219191;1281;22562;-51
2023/12/25 17:08:44;;;;;;;0.50;0.50;;;23.00;52.00;;;;;;218984;1288;23260;-51
2023/12/25 17:13:50;;;;;;;0.40;0.40;;;22.90;52.60;;;;;;219219;1286;24356;-50
2023/12/25 17:18:54;;;;;;;0.50;0.50;;;23.10;52.30;;;;;;219031;1286;22560;-53
2023/12/25 17:24:00;;;;;;;1.00;0.60;;;23.50;51.60;;;;;;219056;1274;23173;-52
2023/12/25 17:29:04;;;;;;;0.30;0.30;;;23.70;51.20;;;;;;219174;1286;22545;-53
2023/12/25 17:34:10;;;;;;;0.50;0.50;;;23.70;51.20;;;;;;218952;1288;24261;-52
2023/12/25 17:39:15;;;;;;;0.80;0.50;;;23.80;50.90;;;;;;219037;1286;22754;-54
2023/12/25 17:44:19;;;;;;;1.00;0.60;;;23.70;51.10;;;;;;219010;1286;24262;-54
2023/12/25 17:49:24;;;;;;;0.60;0.60;;;23.70;50.90;;;;;;219259;1286;25369;-52
2023/12/25 17:54:29;;;;;;;0.40;0.40;;;23.60;51.00;;;;;;219035;1288;23146;-53
2023/12/25 17:59:33;;;;;;;0.50;0.40;;;23.50;51.30;;;;;;219011;1286;23763;-53
2023/12/25 18:04:38;;;;;;;0.60;0.60;;;23.40;51.40;;;;;;218952;1286;22554;-54
2023/12/25 18:09:43;;;;;;;0.50;0.50;;;23.40;52.10;;;;;;218822;1283;24106;-51
2023/12/25 18:14:47;;;;;;;0.60;0.60;;;23.30;51.70;;;;;;219146;1285;24290;-53
2023/12/25 18:19:54;;;;;;;0.50;0.50;;;23.20;51.80;;;;;;218858;1289;24215;-52
2023/12/25 18:24:59;;;;;;;0.40;0.40;;;23.10;51.80;;;;;;218915;1286;223484;-51
2023/12/25 18:30:05;;;;;;;0.90;0.60;;;23.00;51.90;;;;;;218797;1286;24240;-50
2023/12/25 18:35:09;;;;;;;0.80;0.60;;;23.00;52.00;;;;;;218728;1283;23411;-51
2023/12/25 18:40:14;;;;;;;0.50;0.50;;;23.00;51.90;;;;;;219083;1282;24239;-52
2023/12/25 18:45:19;;;;;;;0.50;0.50;;;22.90;52.10;;;;;;219020;1288;22542;-50
2023/12/25 18:50:24;;;;;;;0.50;0.50;;;22.90;52.20;;;;;;218931;1284;24277;-53
2023/12/25 18:55:28;;;;;;;0.50;0.50;;;23.30;51.70;;;;;;219177;1280;22542;-53
2023/12/25 19:00:33;;;;;;;0.70;0.60;;;23.50;51.10;;;;;;219280;1285;22550;-52
2023/12/25 19:05:37;;;;;;;1.50;0.50;;;23.70;51.20;;;;;;219152;1288;24384;-53
2023/12/25 19:10:43;;;;;;;0.60;0.60;;;23.70;50.50;;;;;;219158;1288;22543;-52
2023/12/25 19:15:48;;;;;;;0.50;0.50;;;23.80;50.50;;;;;;218980;1286;22602;-54
2023/12/25 19:20:53;;;;;;;1.50;0.30;;;23.70;50.90;;;;;;219068;1283;22550;-53
2023/12/25 19:25:57;;;;;;;0.60;0.40;;;23.60;50.60;;;;;;219342;1288;23511;-52
2023/12/25 19:31:03;;;;;;;0.70;0.70;;;23.60;50.80;;;;;;219133;1282;24288;-50
2023/12/25 19:36:07;;;;;;;0.60;0.40;;;23.50;50.80;;;;;;218908;1280;22575;-51
2023/12/25 19:41:12;;;;;;;0.50;0.50;;;23.40;51.20;;;;;;219223;1288;24231;-53
2023/12/25 19:46:17;;;;;;;0.50;0.40;;;23.40;51.10;;;;;;219046;1288;22709;-52
2023/12/25 19:51:21;;;;;;;0.60;0.60;;;23.30;51.30;;;;;;219001;1286;22546;-49
2023/12/25 19:56:26;;;;;;;0.40;0.40;;;23.20;51.70;;;;;;219141;1281;24228;-54
2023/12/25 20:01:32;;;;;;;0.80;0.60;;;23.10;51.50;;;;;;219248;1284;23956;-54
2023/12/25 20:06:36;;;;;;;0.40;0.40;;;23.10;51.50;;;;;;219031;1284;24124;-54
2023/12/25 20:11:40;;;;;;;2.60;0.70;;;23.00;51.60;;;;;;220821;1287;24323;-53
2023/12/25 20:16:45;;;;;;;4.60;0.80;;;23.10;51.40;;;;;;219145;1288;22662;-54
2023/12/25 20:21:50;;;;;;;2.50;0.60;;;23.20;51.30;;;;;;218937;1280;22573;-53
2023/12/25 20:26:57;;;;;;;3.20;0.50;;;23.20;51.80;;;;;;217855;1291;24355;-53
2023/12/25 20:32:02;;;;;;;1.40;0.60;;;23.50;51.30;;;;;;218237;1292;25637;-54
2023/12/25 20:37:16;;;;;;;3.20;0.50;;;23.70;50.90;;;;;;217758;1294;24218;-51
2023/12/25 20:42:20;;;;;;;8.10;0.90;;;23.80;51.20;;;;;;218282;1285;22628;-51
2023/12/25 20:47:25;;;;;;;2.50;0.60;;;23.80;52.00;;;;;;218927;1283;22533;-54
2023/12/25 20:52:30;;;;;;;1.20;0.70;;;23.70;52.30;;;;;;218619;1289;22591;-54
2023/12/25 20:57:36;;;;;;;4.00;1.40;;;23.60;53.30;;;;;;218402;1286;24251;-55
2023/12/25 21:02:42;;;;;;;2.50;0.70;;;23.60;54.10;;;;;;218438;1289;24282;-53
2023/12/25 21:07:46;;;;;;;3.90;0.70;;;23.50;54.40;;;;;;218423;1288;24447;-54
2023/12/25 21:12:51;;;;;;;6.00;1.00;;;23.30;54.80;;;;;;219069;1282;25466;-53
2023/12/25 21:17:55;;;;;;;3.40;0.90;;;23.30;55.10;;;;;;219184;1267;22550;-56
2023/12/25 21:23:00;;;;;;;1.80;0.70;;;23.20;55.20;;;;;;218800;1273;25466;-56
2023/12/25 21:28:04;;;;;;;4.50;2.10;;;23.30;55.20;;;;;;219213;1284;24285;-54
2023/12/25 21:33:12;;;;;;;2.40;0.70;;;23.30;55.20;;;;;;219164;1282;22668;-52
2023/12/25 21:38:19;;;;;;;19.20;1.30;;;23.20;55.10;;;;;;218987;1282;22547;-48
2023/12/25 21:43:25;;;;;;;1.80;0.70;;;23.10;55.00;;;;;;219471;1283;24253;-48
2023/12/25 21:48:29;;;;;;;1.20;0.70;;;23.10;55.70;;;;;;219046;1288;22546;-49
2023/12/25 21:53:34;;;;;;;4.80;2.00;;;23.00;55.90;;;;;;219342;1286;22565;-48
2023/12/25 21:58:39;;;;;;;2.50;0.90;;;23.00;55.30;;;;;;219100;1280;22664;-46
2023/12/25 22:03:44;;;;;;;2.30;0.70;;;23.00;55.30;;;;;;219018;1280;24395;-47
2023/12/25 22:08:49;;;;;;;3.60;1.30;;;23.40;54.40;;;;;;219178;1286;24206;-50
2023/12/25 22:13:54;;;;;;;2.70;1.00;;;23.80;53.70;;;;;;218964;1273;22665;-50
2023/12/25 22:19:01;;;;;;;6.30;1.10;;;24.00;52.90;;;;;;218892;1283;22561;-48
2023/12/25 22:24:07;;;;;;;1.20;0.60;;;24.10;53.70;;;;;;219105;1283;22607;-49
2023/12/25 22:29:12;;;;;;;6.70;0.90;;;24.10;54.00;;;;;;218936;1283;24347;-50
2023/12/25 22:34:16;;;;;;;4.60;0.70;;;23.90;54.40;;;;;;219014;1286;25487;-48
2023/12/25 22:39:21;;;;;;;5.30;1.40;;;23.70;55.00;;;;;;218781;1283;22551;-49
2023/12/25 22:44:25;;;;;;;7.20;2.90;;;23.60;54.90;;;;;;219037;1280;24788;-49
2023/12/25 22:49:31;;;;;;;16.20;6.00;;;23.60;54.90;;;;;;218946;1286;22609;-49
2023/12/25 22:54:36;;;;;;;14.60;5.40;;;23.50;55.20;;;;;;218971;1280;24756;-51
2023/12/25 22:59:41;;;;;;;12.60;5.20;;;23.40;55.60;;;;;;219590;1283;25442;-50
2023/12/25 23:04:46;;;;;;;14.90;5.40;;;23.30;55.80;;;;;;219152;1289;22683;-49
2023/12/25 23:09:50;;;;;;;15.10;5.50;;;23.30;56.10;;;;;;220492;1282;25251;-48
2023/12/25 23:14:55;;;;;;;17.10;8.00;;;23.30;55.80;;;;;;218806;1273;24314;-51
2023/12/25 23:20:00;;;;;;;13.70;5.80;;;23.40;57.90;;;;;;218981;1276;24229;-51
2023/12/25 23:25:06;;;;;;;15.90;5.90;;;23.40;58.80;;;;;;219068;1282;22680;-51
2023/12/25 23:30:11;;;;;;;19.70;6.00;;;23.50;61.50;;;;;;219583;1283;23876;-50
2023/12/25 23:35:17;;;;;;;15.80;5.40;;;23.40;62.00;;;;;;219040;1283;22741;-50
2023/12/25 23:40:22;;;;;;;14.30;5.40;;;23.40;59.80;;;;;;219075;1282;22669;-49
2023/12/25 23:45:26;;;;;;;11.80;5.00;;;23.30;60.40;;;;;;219072;1276;22557;-50
2023/12/25 23:50:31;;;;;;;9.40;4.30;;;23.20;60.60;;;;;;218995;1273;26688;-49
2023/12/25 23:55:37;;;;;;;10.00;4.30;;;23.10;60.40;;;;;;218926;1285;22611;-50
